Time;durP1;ratioP1;P1;durP2;ratioP2;P2;SDS_P1;SDS_P2;PMS_P1;PMS_P2;Temp;Humidity;BMP_temperature;BMP_pressure;BME280_temperature;BME280_humidity;BME280_pressure;Samples;Min_cycle;Max_cycle;Signal;HPM_P1;HPM_P2
2022/05/25 00:00:03;;;;;;;;;23.33;23.33;28.10;46.50;;;;;;4974395;28;9141;-81
2022/05/25 00:02:29;;;;;;;;;26.33;26.33;28.10;47.50;;;;;;4962225;28;8795;-81
2022/05/25 00:04:55;;;;;;;;;24.33;24.33;28.00;46.40;;;;;;4964889;28;8830;-82
2022/05/25 00:07:22;;;;;;;;;28.33;28.33;28.00;46.30;;;;;;4956074;28;8832;-82
2022/05/25 00:09:49;;;;;;;;;29.67;29.67;28.00;46.30;;;;;;4966400;28;8816;-82
2022/05/25 00:12:16;;;;;;;;;25.67;25.67;28.00;46.30;;;;;;4967568;28;8804;-81
2022/05/25 00:14:42;;;;;;;;;25.67;25.67;28.00;46.50;;;;;;4957289;28;9454;-82
2022/05/25 00:17:08;;;;;;;;;27.33;27.33;27.90;46.50;;;;;;4957081;28;8800;-83
2022/05/25 00:22:18;;;;;;;;;25.00;25.00;27.80;46.70;;;;;;4956670;28;8756;-81
2022/05/25 00:24:44;;;;;;;;;23.00;23.00;27.80;46.80;;;;;;4956729;28;8796;-81
2022/05/25 00:27:10;;;;;;;;;26.00;26.00;27.80;46.60;;;;;;4956790;28;8808;-82
2022/05/25 00:29:38;;;;;;;;;25.67;25.67;27.80;46.30;;;;;;4956955;28;8784;-82
2022/05/25 00:32:06;;;;;;;;;27.67;27.67;27.80;46.60;;;;;;4956676;28;8811;-82
2022/05/25 00:34:32;;;;;;;;;25.00;25.00;27.60;46.40;;;;;;4971640;28;8848;-79
2022/05/25 00:36:57;;;;;;;;;24.00;24.00;27.60;46.50;;;;;;4956957;28;8784;-80
2022/05/25 00:39:24;;;;;;;;;26.00;26.00;27.60;46.70;;;;;;4955685;28;8824;-80
2022/05/25 00:41:50;;;;;;;;;23.00;23.00;27.60;46.60;;;;;;4956721;28;8862;-80
2022/05/25 00:44:16;;;;;;;;;23.67;23.67;27.60;46.50;;;;;;4956813;28;8962;-81
2022/05/25 00:46:43;;;;;;;;;24.00;24.00;27.50;46.50;;;;;;4971826;28;8792;-81
2022/05/25 00:49:26;;;;;;;;;24.67;24.67;27.50;46.80;;;;;;4956405;28;8807;-81
2022/05/25 00:52:06;;;;;;;;;23.67;23.67;27.40;47.90;;;;;;4956463;28;8765;-81
2022/05/25 00:54:37;;;;;;;;;25.00;24.33;27.40;46.90;;;;;;4972697;28;9499;-82
2022/05/25 00:57:07;;;;;;;;;24.33;24.33;27.40;46.80;;;;;;4975662;28;9325;-80
2022/05/25 00:59:41;;;;;;;;;25.33;25.33;27.40;46.70;;;;;;4975561;28;8840;-80
2022/05/25 01:02:07;;;;;;;;;27.00;27.00;27.40;46.80;;;;;;4975834;28;8770;-81
2022/05/25 01:04:33;;;;;;;;;21.33;21.33;27.40;46.60;;;;;;4990703;28;9470;-81
2022/05/25 01:07:05;;;;;;;;;27.33;27.33;27.50;46.70;;;;;;4975504;28;8778;-81
2022/05/25 01:09:53;;;;;;;;;21.67;21.67;27.40;46.90;;;;;;4975538;28;8797;-80
2022/05/25 01:12:37;;;;;;;;;25.67;25.67;27.40;46.90;;;;;;4955800;28;8908;-80
2022/05/25 01:15:14;;;;;;;;;26.33;26.33;27.40;46.80;;;;;;4990943;28;8809;-82
2022/05/25 01:18:04;;;;;;;;;22.00;22.00;27.40;46.90;;;;;;4975976;28;9404;-82
2022/05/25 01:20:41;;;;;;;;;25.67;25.67;27.40;46.80;;;;;;4976416;28;8769;-81
2022/05/25 01:23:30;;;;;;;;;27.33;27.33;27.40;46.80;;;;;;4976057;28;8793;-83
2022/05/25 01:26:17;;;;;;;;;27.33;27.33;27.40;46.80;;;;;;4975528;28;8800;-82
2022/05/25 01:28:43;;;;;;;;;30.00;30.00;27.20;47.00;;;;;;4975423;28;8796;-82
2022/05/25 01:31:14;;;;;;;;;25.00;25.00;27.10;47.20;;;;;;4963549;28;8800;-80
2022/05/25 01:33:42;;;;;;;;;29.67;29.67;27.20;47.10;;;;;;4959879;28;9497;-81
2022/05/25 01:36:18;;;;;;;;;24.33;24.33;27.20;47.20;;;;;;4979215;28;8762;-81
2022/05/25 01:38:46;;;;;;;;;24.33;24.33;27.10;47.40;;;;;;4979097;28;8820;-81
2022/05/25 01:41:36;;;;;;;;;25.67;25.67;27.00;47.40;;;;;;4979244;28;8770;-81
2022/05/25 01:44:26;;;;;;;;;18.33;18.33;27.00;47.60;;;;;;4979090;28;8923;-81
2022/05/25 01:46:56;;;;;;;;;25.67;25.67;26.90;47.80;;;;;;4979072;28;8812;-81
2022/05/25 01:49:28;;;;;;;;;30.00;30.00;26.90;48.00;;;;;;4978887;28;8805;-81
2022/05/25 01:52:05;;;;;;;;;23.67;23.67;26.90;47.80;;;;;;4979016;28;8773;-81
2022/05/25 01:54:38;;;;;;;;;25.33;25.33;26.80;47.90;;;;;;4978848;28;8805;-81
2022/05/25 01:57:10;;;;;;;;;26.00;26.00;26.90;48.00;;;;;;4978988;28;8777;-81
2022/05/25 01:59:36;;;;;;;;;25.67;25.67;26.90;47.80;;;;;;4978994;28;8809;-81
2022/05/25 02:04:52;;;;;;;;;25.67;25.67;26.80;47.80;;;;;;4978974;28;8761;-82
2022/05/25 02:07:45;;;;;;;;;25.00;25.00;26.80;47.90;;;;;;4978935;28;8782;-82
2022/05/25 02:10:21;;;;;;;;;24.67;24.67;26.70;48.20;;;;;;4978897;28;9428;-82
2022/05/25 02:12:55;;;;;;;;;25.00;25.00;26.60;48.50;;;;;;4978822;28;8788;-82
2022/05/25 02:15:44;;;;;;;;;26.00;26.00;26.50;48.90;;;;;;4978884;28;9604;-82
2022/05/25 02:18:19;;;;;;;;;27.00;27.00;26.50;48.80;;;;;;4978679;28;8825;-82
2022/05/25 02:21:08;;;;;;;;;29.67;29.67;26.50;49.00;;;;;;4978422;28;8762;-81
2022/05/25 02:24:03;;;;;;;;;30.00;30.00;26.40;49.00;;;;;;4978598;28;8766;-82
2022/05/25 02:26:54;;;;;;;;;25.67;25.67;26.30;49.20;;;;;;4978574;28;8795;-82
2022/05/25 02:29:23;;;;;;;;;25.67;25.67;26.30;49.40;;;;;;4978572;28;8773;-82
2022/05/25 02:32:02;;;;;;;;;30.67;30.67;26.30;49.30;;;;;;4993512;28;8798;-83
2022/05/25 02:34:36;;;;;;;;;26.00;26.00;26.30;49.20;;;;;;4978073;28;8944;-82
2022/05/25 02:37:02;;;;;;;;;22.33;22.33;26.20;49.60;;;;;;4979006;28;8785;-82
2022/05/25 02:39:28;;;;;;;;;26.00;26.00;26.20;49.60;;;;;;4978051;28;8825;-82
2022/05/25 02:41:56;;;;;;;;;24.00;24.00;26.20;49.60;;;;;;4978007;28;8770;-82
2022/05/25 02:44:23;;;;;;;;;31.67;31.00;26.20;49.50;;;;;;4992868;28;8833;-82
2022/05/25 02:46:49;;;;;;;;;26.00;26.00;26.30;49.40;;;;;;4977905;28;9408;-82
2022/05/25 02:49:16;;;;;;;;;28.00;28.00;26.20;49.00;;;;;;4979058;28;8792;-82
2022/05/25 02:51:42;;;;;;;;;29.00;29.00;26.30;48.70;;;;;;4978612;28;8809;-82
2022/05/25 02:54:08;;;;;;;;;30.33;30.33;26.40;48.40;;;;;;4978017;28;8872;-81
2022/05/25 02:56:34;;;;;;;;;29.00;29.00;26.30;48.30;;;;;;4993079;28;8808;-81
2022/05/25 02:59:00;;;;;;;;;30.00;29.67;26.40;48.70;;;;;;4977628;28;8809;-81
2022/05/25 03:01:26;;;;;;;;;32.00;30.00;26.30;48.10;;;;;;4977622;28;8766;-82
2022/05/25 03:03:52;;;;;;;;;29.00;29.00;26.20;48.70;;;;;;4977818;28;9452;-81
2022/05/25 03:06:19;;;;;;;;;28.67;28.67;26.20;48.90;;;;;;4977613;28;8770;-81
2022/05/25 03:08:44;;;;;;;;;30.33;30.33;26.10;49.20;;;;;;4977869;28;8789;-82
2022/05/25 03:11:10;;;;;;;;;28.00;28.00;26.10;49.20;;;;;;4977690;28;8793;-81
2022/05/25 03:13:36;;;;;;;;;26.00;26.00;26.10;49.00;;;;;;4977333;28;8827;-82
2022/05/25 03:16:05;;;;;;;;;30.00;30.00;26.00;48.80;;;;;;4977348;28;8781;-81
2022/05/25 03:18:31;;;;;;;;;28.67;28.67;25.90;49.00;;;;;;4977187;28;8820;-82
2022/05/25 03:20:57;;;;;;;;;29.33;29.33;26.00;49.10;;;;;;4977327;28;8762;-82
2022/05/25 03:23:22;;;;;;;;;30.33;30.33;26.10;49.00;;;;;;4977432;28;8801;-82
2022/05/25 03:25:49;;;;;;;;;29.33;29.33;26.10;49.30;;;;;;4977350;28;8900;-81
2022/05/25 03:28:15;;;;;;;;;25.33;25.33;26.20;49.50;;;;;;4977068;28;8782;-82
2022/05/25 03:30:42;;;;;;;;;30.33;30.33;25.90;50.00;;;;;;4977027;28;8781;-82
2022/05/25 03:33:08;;;;;;;;;28.00;28.00;25.90;50.80;;;;;;4976886;28;8753;-81
2022/05/25 03:35:35;;;;;;;;;27.00;27.00;25.80;50.70;;;;;;4977224;28;8785;-81
2022/05/25 03:38:02;;;;;;;;;29.33;29.33;25.90;50.40;;;;;;4976873;28;8801;-81
2022/05/25 03:40:27;;;;;;;;;25.67;25.67;26.00;49.60;;;;;;4971640;28;8806;-81
2022/05/25 03:42:53;;;;;;;;;21.00;21.00;26.00;49.30;;;;;;4961956;28;8812;-81
2022/05/25 03:45:19;;;;;;;;;30.00;30.00;26.10;49.00;;;;;;4957779;28;8839;-81
2022/05/25 03:47:45;;;;;;;;;29.33;29.33;26.10;48.70;;;;;;4957351;28;8795;-81
2022/05/25 03:50:12;;;;;;;;;29.67;29.67;26.10;48.60;;;;;;4957387;28;8818;-81
2022/05/25 03:52:38;;;;;;;;;24.33;24.33;26.20;48.60;;;;;;4957569;28;8772;-81
2022/05/25 03:55:05;;;;;;;;;29.67;29.67;26.20;48.60;;;;;;4956664;28;8810;-82
2022/05/25 03:57:32;;;;;;;;;29.33;29.33;26.20;48.50;;;;;;4957379;28;8807;-81
2022/05/25 03:59:58;;;;;;;;;26.33;26.33;26.10;48.80;;;;;;4957184;28;9439;-81
2022/05/25 04:02:23;;;;;;;;;31.67;31.33;26.10;48.70;;;;;;4964099;28;8805;-81
2022/05/25 04:05:07;;;;;;;;;32.33;31.33;26.10;48.70;;;;;;4957963;28;8834;-81
2022/05/25 04:07:43;;;;;;;;;28.00;28.00;26.10;48.90;;;;;;4957310;28;8804;-81
2022/05/25 04:10:13;;;;;;;;;30.67;30.67;26.10;48.90;;;;;;4971579;28;8793;-81
2022/05/25 04:12:40;;;;;;;;;31.33;31.33;26.10;49.00;;;;;;4976495;28;8777;-81
2022/05/25 04:15:07;;;;;;;;;38.67;35.00;26.20;49.00;;;;;;4976115;28;8809;-81
2022/05/25 04:17:33;;;;;;;;;31.67;31.33;26.20;49.90;;;;;;4976255;28;8774;-81
2022/05/25 04:19:59;;;;;;;;;30.33;29.67;26.10;48.90;;;;;;4976094;28;8911;-81
2022/05/25 04:22:25;;;;;;;;;32.00;31.67;26.20;48.90;;;;;;4976145;28;8793;-81
2022/05/25 04:24:51;;;;;;;;;29.00;29.00;26.20;49.00;;;;;;4976322;28;8920;-81
2022/05/25 04:27:18;;;;;;;;;33.33;32.33;26.20;49.20;;;;;;4974999;28;9471;-81
2022/05/25 04:29:44;;;;;;;;;28.00;28.00;26.20;48.90;;;;;;4976013;28;8964;-81
2022/05/25 04:32:10;;;;;;;;;32.33;31.33;26.40;49.10;;;;;;4976060;28;8872;-81
2022/05/25 04:34:36;;;;;;;;;32.67;31.67;26.50;48.90;;;;;;4975745;28;8903;-81
2022/05/25 04:40:07;;;;;;;;;37.33;35.00;26.50;48.40;;;;;;4915095;29;8827;-80
2022/05/25 04:42:32;;;;;;;;;34.33;33.33;26.50;48.60;;;;;;4915526;29;8990;-80
2022/05/25 04:45:03;;;;;;;;;37.00;34.33;26.50;48.50;;;;;;4916102;29;8831;-80
2022/05/25 04:47:32;;;;;;;;;34.00;32.33;26.50;48.40;;;;;;4916345;29;8935;-80
2022/05/25 04:49:59;;;;;;;;;37.00;34.67;26.60;48.30;;;;;;4899964;29;8822;-80
2022/05/25 04:52:25;;;;;;;;;35.33;33.33;26.60;48.20;;;;;;4916021;29;8898;-80
2022/05/25 04:54:51;;;;;;;;;32.67;31.67;26.70;48.40;;;;;;4914312;29;8921;-80
2022/05/25 04:57:19;;;;;;;;;33.33;32.33;26.60;48.30;;;;;;4914343;29;8977;-80
2022/05/25 04:59:50;;;;;;;;;28.33;28.33;26.60;48.40;;;;;;4914607;29;8826;-80
2022/05/25 05:02:16;;;;;;;;;38.00;34.00;26.70;48.40;;;;;;4916045;29;8841;-80
2022/05/25 05:04:43;;;;;;;;;34.00;32.00;26.70;48.40;;;;;;4915849;29;8803;-81
2022/05/25 05:07:09;;;;;;;;;31.00;31.00;26.70;48.10;;;;;;4916019;29;8814;-81
2022/05/25 05:09:36;;;;;;;;;36.67;34.33;26.80;47.80;;;;;;4911928;29;8780;-82
2022/05/25 05:12:03;;;;;;;;;38.00;34.33;26.90;47.60;;;;;;4970025;28;8793;-75
2022/05/25 05:14:28;;;;;;;;;33.00;32.00;27.00;47.30;;;;;;4975350;28;8814;-75
2022/05/25 05:16:59;;;;;;;;;39.00;36.00;27.10;47.30;;;;;;4974966;28;9482;-74
2022/05/25 05:19:26;;;;;;;;;35.00;33.33;27.10;46.80;;;;;;4975201;28;8821;-74
2022/05/25 05:21:57;;;;;;;;;37.00;34.33;27.20;47.30;;;;;;4975592;28;8901;-76
2022/05/25 05:24:27;;;;;;;;;37.33;33.67;27.20;47.20;;;;;;4975416;28;8800;-75
2022/05/25 05:26:53;;;;;;;;;36.33;33.67;27.30;47.20;;;;;;4975521;28;8769;-75
2022/05/25 05:29:19;;;;;;;;;37.67;34.67;27.40;47.20;;;;;;4975498;28;8897;-75
2022/05/25 05:31:45;;;;;;;;;39.33;35.33;27.50;46.90;;;;;;4975145;28;8798;-74
2022/05/25 05:34:11;;;;;;;;;40.67;36.33;27.60;46.70;;;;;;4974974;28;8821;-74
2022/05/25 05:36:43;;;;;;;;;34.00;32.33;27.70;46.10;;;;;;4975393;28;8792;-77
2022/05/25 05:39:12;;;;;;;;;36.00;34.00;27.80;44.80;;;;;;4975133;28;8813;-76
2022/05/25 05:41:55;;;;;;;;;33.00;32.00;27.90;44.60;;;;;;4975431;28;9510;-77
2022/05/25 05:44:25;;;;;;;;;36.33;34.33;28.00;44.80;;;;;;4974112;28;8837;-75
2022/05/25 05:46:53;;;;;;;;;32.33;31.33;28.10;43.80;;;;;;4975271;28;9490;-77
2022/05/25 05:49:19;;;;;;;;;35.33;32.67;28.20;43.70;;;;;;4975435;28;8773;-77
2022/05/25 05:51:45;;;;;;;;;31.33;30.33;28.30;43.60;;;;;;4975180;28;9513;-75
2022/05/25 05:54:12;;;;;;;;;29.67;29.67;28.30;43.20;;;;;;4975283;28;8769;-77
2022/05/25 05:56:38;;;;;;;;;33.67;32.00;28.40;42.60;;;;;;4975184;28;8884;-74
2022/05/25 05:59:04;;;;;;;;;27.33;27.33;28.40;42.60;;;;;;4974871;28;8821;-76
2022/05/25 06:01:30;;;;;;;;;27.00;27.00;28.20;41.80;;;;;;4975195;28;8766;-74
2022/05/25 06:03:56;;;;;;;;;33.67;32.00;28.00;41.90;;;;;;4974956;28;8785;-76
2022/05/25 06:06:23;;;;;;;;;28.67;28.67;28.10;41.90;;;;;;4989996;28;8808;-77
2022/05/25 06:08:49;;;;;;;;;27.33;27.33;28.30;41.50;;;;;;4974908;28;8786;-75
2022/05/25 06:11:19;;;;;;;;;25.67;25.33;28.30;41.30;;;;;;4974940;28;8761;-75
2022/05/25 06:13:45;;;;;;;;;30.00;30.00;28.20;41.30;;;;;;4974826;28;8805;-75
2022/05/25 06:21:40;;;;;;;;;25.00;25.00;28.70;41.40;;;;;;4978282;28;8742;-75
2022/05/25 06:24:06;;;;;;;;;25.00;25.00;28.70;41.20;;;;;;4978246;28;8811;-81
2022/05/25 06:26:32;;;;;;;;;30.00;30.00;28.70;41.10;;;;;;4978303;28;8790;-81
2022/05/25 06:29:00;;;;;;;;;23.67;23.67;28.70;41.10;;;;;;4977249;28;8797;-82
2022/05/25 06:31:27;;;;;;;;;27.00;27.00;28.70;41.30;;;;;;4978349;28;8804;-82
2022/05/25 06:33:53;;;;;;;;;29.33;29.00;28.70;41.40;;;;;;4978045;28;8809;-81
2022/05/25 06:36:22;;;;;;;;;27.33;27.33;28.70;41.50;;;;;;4978508;28;8785;-82
2022/05/25 06:38:48;;;;;;;;;29.33;29.33;28.80;41.80;;;;;;4977991;28;8817;-82
2022/05/25 06:41:14;;;;;;;;;32.00;31.33;28.70;42.10;;;;;;4993174;28;9452;-83
2022/05/25 06:43:40;;;;;;;;;31.00;30.67;28.80;43.50;;;;;;4977972;28;8920;-82
2022/05/25 06:46:08;;;;;;;;;27.67;27.67;28.70;42.50;;;;;;4977910;28;8860;-82
2022/05/25 06:48:34;;;;;;;;;30.33;30.33;28.80;43.00;;;;;;4977925;28;8762;-83
2022/05/25 06:51:18;;;;;;;;;30.33;30.33;28.80;42.70;;;;;;4977831;28;8806;-82
2022/05/25 06:53:45;;;;;;;;;31.33;30.33;28.90;43.20;;;;;;4977656;28;8777;-82
2022/05/25 06:56:10;;;;;;;;;31.67;30.67;28.80;43.50;;;;;;4977778;28;8797;-83
2022/05/25 06:58:36;;;;;;;;;32.00;31.00;28.60;44.00;;;;;;4977696;28;8817;-82
2022/05/25 07:01:04;;;;;;;;;32.67;31.67;28.70;44.10;;;;;;4976604;28;8825;-80
2022/05/25 07:03:31;;;;;;;;;29.33;29.33;28.90;43.80;;;;;;4977573;28;8841;-81
2022/05/25 07:05:57;;;;;;;;;34.00;32.33;28.90;43.40;;;;;;4976674;28;8804;-81
2022/05/25 07:08:24;;;;;;;;;31.33;30.67;28.90;43.60;;;;;;4977579;28;8859;-81
2022/05/25 07:10:49;;;;;;;;;34.33;32.33;28.90;43.80;;;;;;4977366;28;8774;-81
2022/05/25 07:13:17;;;;;;;;;33.33;32.00;28.80;43.30;;;;;;4977235;28;8800;-81
2022/05/25 07:15:43;;;;;;;;;32.00;31.00;29.00;43.30;;;;;;4977335;28;8778;-81
2022/05/25 07:18:10;;;;;;;;;34.67;32.67;28.90;42.70;;;;;;4977236;28;8770;-81
2022/05/25 07:20:36;;;;;;;;;33.33;32.00;29.00;43.00;;;;;;4992569;28;8801;-81
2022/05/25 07:23:02;;;;;;;;;30.67;30.33;29.00;42.60;;;;;;4977384;28;8782;-81
2022/05/25 07:25:29;;;;;;;;;26.33;26.33;29.10;42.30;;;;;;4977398;28;9721;-81
2022/05/25 07:27:54;;;;;;;;;30.67;30.33;29.20;42.10;;;;;;4977140;28;8865;-81
2022/05/25 07:30:20;;;;;;;;;33.00;31.33;29.10;42.60;;;;;;4976208;28;8793;-83
2022/05/25 07:32:47;;;;;;;;;30.33;30.00;29.10;42.80;;;;;;4977258;28;8883;-81
2022/05/25 07:35:16;;;;;;;;;33.00;32.00;29.30;42.60;;;;;;4976869;28;8813;-79
2022/05/25 07:37:46;;;;;;;;;26.67;26.67;29.00;41.80;;;;;;4976841;28;8782;-78
2022/05/25 07:40:16;;;;;;;;;30.67;30.33;29.20;41.30;;;;;;4976602;28;8841;-79
2022/05/25 07:42:48;;;;;;;;;30.67;30.33;29.40;41.20;;;;;;4976946;28;8805;-79
2022/05/25 07:45:13;;;;;;;;;30.00;30.00;29.30;41.20;;;;;;4977088;28;8907;-78
2022/05/25 07:47:39;;;;;;;;;32.67;31.67;29.30;40.80;;;;;;4977047;28;8770;-77
2022/05/25 07:50:05;;;;;;;;;30.33;30.00;29.40;41.50;;;;;;4976737;28;8903;-74
2022/05/25 07:52:36;;;;;;;;;32.00;31.00;29.50;41.80;;;;;;4976924;28;9777;-79
2022/05/25 07:55:02;;;;;;;;;30.00;30.00;29.60;41.90;;;;;;4974901;28;8782;-79
2022/05/25 07:57:28;;;;;;;;;30.00;30.00;29.70;41.50;;;;;;4975504;28;8805;-75
2022/05/25 07:59:54;;;;;;;;;28.67;28.67;29.80;41.00;;;;;;4976511;28;8995;-79
2022/05/25 08:07:56;;;;;;;;;29.00;29.00;29.90;40.30;;;;;;4976678;28;8773;-80
2022/05/25 08:10:25;;;;;;;;;27.33;27.33;30.10;40.30;;;;;;4976813;28;8808;-81
2022/05/25 08:12:55;;;;;;;;;25.67;25.67;30.20;40.30;;;;;;4976646;28;8789;-76
2022/05/25 08:15:21;;;;;;;;;25.67;25.67;30.20;39.60;;;;;;4976625;28;8801;-77
2022/05/25 08:17:48;;;;;;;;;28.00;28.00;30.30;39.50;;;;;;4976474;28;8762;-76
2022/05/25 08:20:14;;;;;;;;;31.33;30.67;30.40;39.60;;;;;;4976329;28;8852;-79
2022/05/25 08:22:41;;;;;;;;;30.00;30.00;30.40;39.60;;;;;;4976676;28;8900;-82
2022/05/25 08:25:12;;;;;;;;;26.67;26.67;30.40;39.10;;;;;;4976667;28;8766;-80
2022/05/25 08:27:39;;;;;;;;;28.33;28.33;30.30;38.90;;;;;;4976281;28;8834;-82
2022/05/25 08:30:17;;;;;;;;;28.00;28.00;30.50;38.50;;;;;;4975093;28;9546;-80
2022/05/25 08:32:43;;;;;;;;;28.00;28.00;30.60;38.50;;;;;;4976369;28;8781;-79
2022/05/25 08:35:09;;;;;;;;;30.33;29.67;30.60;38.60;;;;;;4976694;28;8805;-82
2022/05/25 08:37:36;;;;;;;;;27.67;27.67;30.80;38.70;;;;;;4976318;28;8769;-83
2022/05/25 08:40:03;;;;;;;;;30.67;30.00;30.80;37.30;;;;;;4976232;28;9565;-79
2022/05/25 08:42:36;;;;;;;;;25.33;25.33;30.80;37.60;;;;;;4975474;28;8835;-78
2022/05/25 08:45:02;;;;;;;;;27.33;27.33;31.00;37.60;;;;;;4976344;28;8887;-77
2022/05/25 08:47:28;;;;;;;;;29.67;29.67;31.20;37.80;;;;;;4976078;28;8785;-80
2022/05/25 08:49:55;;;;;;;;;24.00;24.00;31.20;37.80;;;;;;4975771;28;8828;-78
2022/05/25 08:52:34;;;;;;;;;28.33;28.33;31.20;37.00;;;;;;4976210;28;8797;-79
2022/05/25 08:55:02;;;;;;;;;26.33;26.33;31.30;37.10;;;;;;4975977;28;8820;-79
2022/05/25 08:57:39;;;;;;;;;28.33;28.33;31.30;36.40;;;;;;4975741;28;9400;-78
2022/05/25 09:00:15;;;;;;;;;25.00;25.00;31.50;36.80;;;;;;4976002;28;8817;-77
2022/05/25 09:02:45;;;;;;;;;24.67;24.67;31.60;37.00;;;;;;4975662;28;8778;-79
2022/05/25 09:05:58;;;;;;;;;23.33;23.33;31.50;35.90;;;;;;4975430;28;11554;-81
2022/05/25 09:08:40;;;;;;;;;24.00;24.00;31.50;35.40;;;;;;4938025;28;11724;-80
2022/05/25 09:11:23;;;;;;;;;27.33;27.33;31.50;36.40;;;;;;4954079;28;11640;-78
2022/05/25 09:14:17;;;;;;;;;27.67;27.67;31.60;36.10;;;;;;4954464;29;8813;-77
2022/05/25 09:16:46;;;;;;;;;24.67;24.67;31.90;35.90;;;;;;4954323;29;8766;-83
2022/05/25 09:19:19;;;;;;;;;24.67;24.67;31.90;35.30;;;;;;4938046;29;12296;-80
2022/05/25 09:22:03;;;;;;;;;23.67;23.67;32.00;34.80;;;;;;4954216;29;11583;-80
2022/05/25 09:24:31;;;;;;;;;26.67;26.67;32.20;35.50;;;;;;4953997;29;8790;-82
2022/05/25 09:26:59;;;;;;;;;29.00;29.00;32.10;35.30;;;;;;4954509;29;11607;-78
2022/05/25 09:29:24;;;;;;;;;23.00;23.00;32.40;35.20;;;;;;4938911;29;8793;-82
2022/05/25 09:31:54;;;;;;;;;27.33;27.33;32.70;34.30;;;;;;4954723;29;11676;-82
2022/05/25 09:34:48;;;;;;;;;17.33;17.33;32.70;33.40;;;;;;4955676;29;9505;-81
2022/05/25 09:37:37;;;;;;;;;23.33;23.33;32.60;33.30;;;;;;4955484;29;11597;-79
2022/05/25 09:40:14;;;;;;;;;26.33;25.33;33.00;33.00;;;;;;4954198;29;11639;-76
2022/05/25 09:42:40;;;;;;;;;25.33;25.33;33.20;33.00;;;;;;4954342;29;8790;-77
2022/05/25 09:45:13;;;;;;;;;26.00;26.00;33.50;32.90;;;;;;4943242;29;11629;-78
2022/05/25 09:47:45;;;;;;;;;22.67;22.67;33.60;32.00;;;;;;4936873;29;8833;-79
2022/05/25 09:50:24;;;;;;;;;21.33;21.33;33.70;32.40;;;;;;4938518;29;12103;-80
2022/05/25 09:52:53;;;;;;;;;24.00;24.00;33.70;31.80;;;;;;4937317;29;11661;-76
2022/05/25 09:55:34;;;;;;;;;25.67;25.67;33.70;31.10;;;;;;4939939;29;11588;-83
2022/05/25 09:58:11;;;;;;;;;22.33;22.33;33.80;30.70;;;;;;4940193;28;11600;-79
2022/05/25 10:00:41;;;;;;;;;21.50;21.50;33.80;30.90;;;;;;4940329;29;11586;-77
2022/05/25 10:03:20;;;;;;;;;14.67;14.67;33.40;29.90;;;;;;4940380;29;11576;-82
2022/05/25 10:05:57;;;;;;;;;20.25;20.25;33.60;31.20;;;;;;4940243;29;11576;-83
2022/05/25 10:08:41;;;;;;;;;20.25;20.25;34.20;30.60;;;;;;4940037;29;11722;-76
2022/05/25 10:11:33;;;;;;;;;23.00;23.00;34.40;30.00;;;;;;4939780;29;11557;-77
2022/05/25 10:14:17;;;;;;;;;22.00;22.00;34.70;29.20;;;;;;4940101;29;11660;-75
2022/05/25 10:16:42;;;;;;;;;23.67;23.67;34.80;29.10;;;;;;4940063;29;11621;-78
2022/05/25 10:19:14;;;;;;;;;21.67;21.67;35.10;29.10;;;;;;4939065;29;12303;-80
2022/05/25 10:21:50;;;;;;;;;21.25;21.25;35.00;29.00;;;;;;4936244;29;8842;-80
2022/05/25 10:24:25;;;;;;;;;22.00;22.00;35.10;28.20;;;;;;4939081;29;11631;-80
2022/05/25 10:26:57;;;;;;;;;24.00;24.00;35.40;28.40;;;;;;4939902;29;12247;-80
2022/05/25 10:38:27;;;;;;;;;20.67;20.67;36.10;29.00;;;;;;4978058;28;11599;-80
2022/05/25 10:40:57;;;;;;;;;21.33;21.33;36.50;27.80;;;;;;4978033;28;12174;-81
2022/05/25 10:43:29;;;;;;;;;22.00;22.00;37.10;27.60;;;;;;4978453;28;11562;-82
2022/05/25 10:45:58;;;;;;;;;22.00;22.00;37.50;27.00;;;;;;4978241;28;11572;-83
2022/05/25 10:49:03;;;;;;;;;23.25;23.25;37.80;26.50;;;;;;4977876;28;11576;-81
2022/05/25 10:51:44;;;;;;;;;21.00;21.00;37.90;25.70;;;;;;4976392;28;11688;-80
2022/05/25 10:57:23;;;;;;;;;21.00;21.00;37.70;24.80;;;;;;4977612;28;11548;-78
2022/05/25 11:00:08;;;;;;;;;17.50;17.50;37.70;25.00;;;;;;4977630;28;11559;-77
2022/05/25 11:02:52;;;;;;;;;23.75;23.75;37.50;25.30;;;;;;4977687;28;11549;-78
2022/05/25 11:05:22;;;;;;;;;22.00;22.00;37.60;25.70;;;;;;4977296;28;11539;-79
2022/05/25 11:07:53;;;;;;;;;22.00;22.00;37.70;25.00;;;;;;4977423;28;11771;-79
2022/05/25 11:10:46;;;;;;;;;16.25;16.25;37.60;24.90;;;;;;4977419;28;11554;-79
2022/05/25 11:13:23;;;;;;;;;18.50;18.50;37.70;25.50;;;;;;4977000;28;12329;-79
2022/05/25 11:16:17;;;;;;;;;20.75;20.75;37.80;25.00;;;;;;4976139;28;11635;-79
2022/05/25 11:19:04;;;;;;;;;21.00;21.00;37.80;25.40;;;;;;4975834;28;11613;-80
2022/05/25 11:21:42;;;;;;;;;19.00;18.50;37.90;25.70;;;;;;4975995;28;11566;-79
2022/05/25 11:24:15;;;;;;;;;16.75;16.75;38.00;24.70;;;;;;4977174;28;11534;-79
2022/05/25 11:26:47;;;;;;;;;18.00;18.00;37.80;23.70;;;;;;4977405;28;11528;-79
2022/05/25 11:29:21;;;;;;;;;17.75;17.75;38.10;24.10;;;;;;4977200;28;12245;-82
2022/05/25 11:32:08;;;;;;;;;21.00;21.00;38.20;23.90;;;;;;4976935;28;11556;-75
2022/05/25 11:34:58;;;;;;;;;17.50;17.50;38.50;24.30;;;;;;4976721;28;11686;-75
2022/05/25 11:37:29;;;;;;;;;14.50;14.50;38.60;23.60;;;;;;4976786;28;11694;-78
2022/05/25 11:40:03;;;;;;;;;21.25;21.25;38.90;24.20;;;;;;4976958;28;12184;-81
2022/05/25 11:42:59;;;;;;;;;32.67;31.33;39.10;24.50;;;;;;4977042;28;11554;-76
2022/05/25 11:46:07;;;;;;;;;30.33;30.00;39.60;24.30;;;;;;4977131;28;8797;-76
2022/05/25 11:49:03;;;;;;;;;25.50;24.00;40.00;24.10;;;;;;4940444;28;8797;-78
2022/05/25 11:51:35;;;;;;;;;22.67;22.67;40.90;23.50;;;;;;4976479;28;11665;-75
2022/05/25 11:54:01;;;;;;;;;22.75;22.75;45.50;22.40;;;;;;4973525;28;11565;-77
2022/05/25 11:56:49;;;;;;;;;25.25;25.25;51.20;19.70;;;;;;4976898;28;11703;-74
2022/05/25 11:59:45;;;;;;;;;17.00;17.00;55.80;16.90;;;;;;4957102;28;8796;-77
2022/05/25 12:02:45;;;;;;;;;19.25;19.25;58.70;14.30;;;;;;4958303;28;11569;-74
2022/05/25 12:05:20;;;;;;;;;10.50;10.50;59.50;12.90;;;;;;4964584;28;11588;-77
2022/05/25 12:08:07;;;;;;;;;19.00;19.00;53.30;13.20;;;;;;4966437;28;11529;-73
2022/05/25 12:10:40;;;;;;;;;16.00;16.00;48.80;16.00;;;;;;4968503;28;11606;-73
2022/05/25 12:13:33;;;;;;;;;17.25;17.25;46.50;17.90;;;;;;4957956;28;11757;-74
2022/05/25 12:16:20;;;;;;;;;17.00;17.00;44.80;18.50;;;;;;4964443;28;11618;-72
2022/05/25 12:19:05;;;;;;;;;17.50;17.50;43.70;19.50;;;;;;4960688;28;11593;-73
2022/05/25 12:21:53;;;;;;;;;16.00;16.00;43.10;20.20;;;;;;4957317;28;12262;-82
2022/05/25 12:24:28;;;;;;;;;19.25;19.25;41.80;21.20;;;;;;4959028;28;11533;-76
2022/05/25 12:26:57;;;;;;;;;22.50;22.50;41.30;21.40;;;;;;4966435;28;11650;-74
2022/05/25 12:29:27;;;;;;;;;17.75;17.75;41.10;21.60;;;;;;4976036;28;11561;-75
2022/05/25 12:31:56;;;;;;;;;18.00;18.00;40.80;21.60;;;;;;4968571;28;11666;-71
2022/05/25 12:34:41;;;;;;;;;21.50;21.50;40.60;21.50;;;;;;4961603;28;11672;-71
2022/05/25 12:37:09;;;;;;;;;19.75;19.75;40.40;22.10;;;;;;4969249;28;11720;-73
2022/05/25 12:39:47;;;;;;;;;19.75;19.50;40.40;22.20;;;;;;4960997;28;11598;-75
2022/05/25 12:42:25;;;;;;;;;21.75;21.75;39.90;22.10;;;;;;4971144;28;11642;-75
2022/05/25 12:50:47;;;;;;;;;20.00;20.00;40.20;23.40;;;;;;4956259;28;11532;-75
2022/05/25 12:53:25;;;;;;;;;23.00;23.00;40.20;22.30;;;;;;4956223;28;11628;-73
2022/05/25 12:55:59;;;;;;;;;20.50;20.50;40.30;22.90;;;;;;4963339;28;11568;-78
2022/05/25 12:58:32;;;;;;;;;22.00;22.00;40.30;22.30;;;;;;4965231;28;11681;-78
2022/05/25 13:01:22;;;;;;;;;19.25;19.25;40.20;22.10;;;;;;4956956;28;12227;-76
2022/05/25 13:03:47;;;;;;;;;20.00;20.00;40.20;22.40;;;;;;4956259;28;11661;-77
2022/05/25 13:06:29;;;;;;;;;23.25;23.25;40.30;22.10;;;;;;4956270;28;11756;-77
2022/05/25 13:08:55;;;;;;;;;19.75;19.75;40.40;22.10;;;;;;4956247;28;8776;-76
2022/05/25 13:11:53;;;;;;;;;19.00;19.00;40.30;22.50;;;;;;4956118;28;12205;-77
2022/05/25 13:14:22;;;;;;;;;19.75;19.75;40.30;22.00;;;;;;4956149;28;8938;-78
2022/05/25 13:16:53;;;;;;;;;20.00;20.00;40.40;22.40;;;;;;4955991;28;11567;-76
2022/05/25 13:19:45;;;;;;;;;19.75;19.75;40.40;23.40;;;;;;4956505;28;11640;-76
2022/05/25 13:22:17;;;;;;;;;19.50;19.50;40.50;23.20;;;;;;4956240;29;11581;-75
2022/05/25 13:25:14;;;;;;;;;14.25;14.25;40.50;22.90;;;;;;4956157;29;11567;-76
2022/05/25 13:27:43;;;;;;;;;20.75;20.75;40.50;22.40;;;;;;4956762;28;11621;-77
2022/05/25 13:30:29;;;;;;;;;21.00;21.00;40.40;23.20;;;;;;4959655;28;12228;-76
2022/05/25 13:33:00;;;;;;;;;20.33;20.33;40.40;23.60;;;;;;4959768;28;11573;-75
2022/05/25 13:35:32;;;;;;;;;17.00;17.00;40.20;22.30;;;;;;4959522;28;11585;-78